createdAt,value
2023-01-01T00:00:07.507Z,16.64
2023-01-01T00:02:37.339Z,16.53
2023-01-01T00:05:06.204Z,16.53
2023-01-01T00:07:34.248Z,16.63
2023-01-01T00:10:19.518Z,16.62
2023-01-01T00:12:47.361Z,16.65
2023-01-01T00:15:15.086Z,16.72
2023-01-01T00:17:44.368Z,16.75
2023-01-01T00:20:12.521Z,16.67
2023-01-01T00:22:56.592Z,16.73
2023-01-01T00:25:25.721Z,16.73
2023-01-01T00:27:53.635Z,16.68
2023-01-01T00:30:21.519Z,16.72
2023-01-01T00:32:55.724Z,16.76
2023-01-01T00:35:24.535Z,16.70
2023-01-01T00:37:52.427Z,16.68
2023-01-01T00:40:20.437Z,16.73
2023-01-01T00:42:48.335Z,16.78
2023-01-01T00:45:21.510Z,16.66
2023-01-01T00:47:52.934Z,16.73
2023-01-01T00:50:24.023Z,16.63
2023-01-01T00:52:53.673Z,16.60
2023-01-01T00:55:21.493Z,16.67
2023-01-01T00:57:49.517Z,16.59
2023-01-01T01:00:18.575Z,16.61
2023-01-01T01:02:46.580Z,16.68
2023-01-01T01:05:16.495Z,16.68
2023-01-01T01:07:44.811Z,16.73
2023-01-01T01:10:13.188Z,16.72
2023-01-01T01:12:41.170Z,16.77
2023-01-01T01:15:11.511Z,16.70
2023-01-01T01:17:39.412Z,16.69
2023-01-01T01:20:09.351Z,16.73
2023-01-01T01:22:38.725Z,16.80
2023-01-01T01:25:08.051Z,16.82
2023-01-01T01:27:35.905Z,16.72
2023-01-01T01:30:03.693Z,16.67
2023-01-01T01:32:31.436Z,16.73
2023-01-01T01:34:59.409Z,16.80
2023-01-01T01:37:27.163Z,16.79
2023-01-01T01:39:56.355Z,16.84
2023-01-01T01:42:24.230Z,16.80
2023-01-01T01:44:56.267Z,16.75
2023-01-01T01:47:29.041Z,16.69
2023-01-01T01:50:01.282Z,16.75
2023-01-01T01:52:30.951Z,16.75
2023-01-01T01:55:02.163Z,16.80
2023-01-01T01:57:30.965Z,16.79
2023-01-01T02:00:02.471Z,16.74
2023-01-01T02:02:38.402Z,16.73
2023-01-01T02:05:07.427Z,16.71
2023-01-01T02:07:36.830Z,16.77
2023-01-01T02:10:07.297Z,16.74
2023-01-01T02:12:35.264Z,16.77
2023-01-01T02:15:03.163Z,16.80
2023-01-01T02:17:38.943Z,16.82
2023-01-01T02:20:26.639Z,16.83
2023-01-01T02:23:11.675Z,16.78
2023-01-01T02:25:53.799Z,16.84
2023-01-01T02:28:34.786Z,16.80
2023-01-01T02:31:03.346Z,16.80
2023-01-01T02:33:32.096Z,16.82
2023-01-01T02:36:02.961Z,16.76
2023-01-01T02:38:34.180Z,16.75
2023-01-01T02:41:03.913Z,16.77
2023-01-01T02:43:33.017Z,16.83
2023-01-01T02:46:00.845Z,16.87
2023-01-01T02:48:40.787Z,16.82
2023-01-01T02:51:20.409Z,16.80
2023-01-01T02:53:56.802Z,16.83
2023-01-01T02:56:34.638Z,16.80
2023-01-01T02:59:36.052Z,16.83
2023-01-01T03:02:14.047Z,16.82
2023-01-01T03:04:54.597Z,16.69
2023-01-01T03:07:30.307Z,16.64
2023-01-01T03:10:04.492Z,16.69
2023-01-01T03:12:40.638Z,16.62
2023-01-01T03:15:16.190Z,16.53
2023-01-01T03:17:51.544Z,16.41
2023-01-01T03:20:25.458Z,16.38
2023-01-01T03:22:56.750Z,16.27
2023-01-01T03:25:29.245Z,16.32
2023-01-01T03:28:03.782Z,16.28
2023-01-01T03:30:37.023Z,16.22
2023-01-01T03:33:07.953Z,16.29
2023-01-01T03:35:41.099Z,16.23
2023-01-01T03:38:16.645Z,16.20
2023-01-01T03:40:47.010Z,16.31
2023-01-01T03:43:21.709Z,16.21
2023-01-01T03:45:52.445Z,16.20
2023-01-01T03:48:20.550Z,16.23
2023-01-01T03:50:59.995Z,16.22
2023-01-01T03:53:38.391Z,16.24
2023-01-01T03:56:14.702Z,16.24
2023-01-01T03:58:47.639Z,16.27
2023-01-01T04:01:22.292Z,16.34
2023-01-01T04:03:51.611Z,16.25
2023-01-01T04:06:19.597Z,16.22
2023-01-01T04:08:48.685Z,16.19
2023-01-01T04:11:48.785Z,16.22
2023-01-01T04:14:28.280Z,16.13
2023-01-01T04:16:57.834Z,16.14
2023-01-01T04:19:25.681Z,16.19
2023-01-01T04:21:53.502Z,16.20
2023-01-01T04:24:21.525Z,16.13
2023-01-01T04:26:49.683Z,16.14
2023-01-01T04:29:17.939Z,16.16
2023-01-01T04:31:45.682Z,16.12
2023-01-01T04:34:14.873Z,16.09
2023-01-01T04:36:43.261Z,16.08
2023-01-01T04:39:11.177Z,16.07
2023-01-01T04:41:38.997Z,16.09
2023-01-01T04:44:06.922Z,16.13
2023-01-01T04:46:34.659Z,16.07
2023-01-01T04:49:02.418Z,16.14
2023-01-01T04:51:31.614Z,16.20
2023-01-01T04:54:00.382Z,16.26
2023-01-01T04:56:28.157Z,16.23
2023-01-01T04:58:57.341Z,16.22
2023-01-01T05:01:27.608Z,16.24
2023-01-01T05:03:56.771Z,16.24
2023-01-01T05:06:25.516Z,16.16
2023-01-01T05:08:55.703Z,16.18
2023-01-01T05:11:25.599Z,16.27
2023-01-01T05:13:55.159Z,16.23
2023-01-01T05:16:25.436Z,16.26
2023-01-01T05:18:53.722Z,16.28
2023-01-01T05:21:23.220Z,16.22
2023-01-01T05:23:56.953Z,16.26
2023-01-01T05:26:28.196Z,16.31
2023-01-01T05:28:57.226Z,16.28
2023-01-01T05:31:27.037Z,16.36
2023-01-01T05:33:55.755Z,16.36
2023-01-01T05:36:25.750Z,16.41
2023-01-01T05:38:54.164Z,16.46
2023-01-01T05:41:24.425Z,16.60
2023-01-01T05:43:53.014Z,16.56
2023-01-01T05:46:22.935Z,16.52
2023-01-01T05:48:51.468Z,16.43
2023-01-01T05:51:22.325Z,16.42
2023-01-01T05:53:50.336Z,16.47
2023-01-01T05:56:19.051Z,16.45
2023-01-01T05:58:48.321Z,16.48
2023-01-01T06:01:18.463Z,16.45
2023-01-01T06:03:48.875Z,16.51
2023-01-01T06:06:19.079Z,16.59
2023-01-01T06:08:50.943Z,16.50
2023-01-01T06:11:19.174Z,16.55
2023-01-01T06:13:48.767Z,16.50
2023-01-01T06:16:16.674Z,16.52
2023-01-01T06:18:44.461Z,16.49
2023-01-01T06:21:14.510Z,16.49
2023-01-01T06:23:43.287Z,16.56
2023-01-01T06:26:13.231Z,16.55
2023-01-01T06:28:41.495Z,16.52
2023-01-01T06:31:13.184Z,16.52
2023-01-01T06:33:41.924Z,16.54
2023-01-01T06:36:12.068Z,16.53
2023-01-01T06:38:41.871Z,16.54
2023-01-01T06:41:12.820Z,16.46
2023-01-01T06:43:40.670Z,16.50
2023-01-01T06:46:15.225Z,16.54
2023-01-01T06:48:43.251Z,16.50
2023-01-01T06:51:12.802Z,16.43
2023-01-01T06:53:40.775Z,16.52
2023-01-01T06:56:09.255Z,16.52
2023-01-01T06:58:37.175Z,16.47
2023-01-01T07:01:08.923Z,16.42
2023-01-01T07:03:38.945Z,16.44
2023-01-01T07:06:07.769Z,16.36
2023-01-01T07:08:35.831Z,16.38
2023-01-01T07:11:03.624Z,16.35
2023-01-01T07:13:32.329Z,16.29
2023-01-01T07:16:00.409Z,16.22
2023-01-01T07:18:28.324Z,16.17
2023-01-01T07:20:59.610Z,16.10
2023-01-01T07:23:28.961Z,16.24
2023-01-01T07:25:57.198Z,16.22
2023-01-01T07:28:26.301Z,16.05
2023-01-01T07:30:54.902Z,16.01
2023-01-01T07:33:24.959Z,16.03
2023-01-01T07:35:52.721Z,16.01
2023-01-01T07:38:21.894Z,16.04
2023-01-01T07:40:49.646Z,16.10
2023-01-01T07:43:17.465Z,16.08
2023-01-01T07:45:45.228Z,16.08
2023-01-01T07:48:15.849Z,16.08
2023-01-01T07:50:44.232Z,16.05
2023-01-01T07:53:12.011Z,16.00
2023-01-01T07:55:41.155Z,16.08
2023-01-01T07:58:08.967Z,16.16
2023-01-01T08:00:36.717Z,16.12
2023-01-01T08:03:04.593Z,16.10
2023-01-01T08:05:34.124Z,16.07
2023-01-01T08:08:01.932Z,16.03
2023-01-01T08:10:29.766Z,16.01
2023-01-01T08:13:02.152Z,15.92
2023-01-01T08:15:30.144Z,15.96
2023-01-01T08:17:58.683Z,15.97
2023-01-01T08:20:26.539Z,15.90
2023-01-01T08:22:54.267Z,15.88
2023-01-01T08:25:22.485Z,15.86
2023-01-01T08:27:50.293Z,15.82
2023-01-01T08:30:19.475Z,15.81
2023-01-01T08:32:47.167Z,15.83
2023-01-01T08:35:15.024Z,15.79
2023-01-01T08:37:42.821Z,15.72
2023-01-01T08:40:12.869Z,15.71
2023-01-01T08:42:40.854Z,15.78
2023-01-01T08:45:09.843Z,15.79
2023-01-01T08:47:38.945Z,15.84
2023-01-01T08:50:07.812Z,15.88
2023-01-01T08:52:35.573Z,15.86
2023-01-01T08:55:03.415Z,15.84
2023-01-01T08:57:31.937Z,15.86
2023-01-01T08:59:59.678Z,15.93
2023-01-01T09:02:28.695Z,16.00
2023-01-01T09:04:57.886Z,16.08
2023-01-01T09:07:25.626Z,16.04
2023-01-01T09:09:53.348Z,16.03
2023-01-01T09:12:21.142Z,16.06
2023-01-01T09:14:49.105Z,16.03
2023-01-01T09:17:16.992Z,16.05
2023-01-01T09:19:44.906Z,15.93
2023-01-01T09:22:14.247Z,15.99
2023-01-01T09:24:42.132Z,15.92
2023-01-01T09:27:09.940Z,15.85
2023-01-01T09:29:37.698Z,15.87
2023-01-01T09:32:05.916Z,15.84
2023-01-01T09:34:33.749Z,15.74
2023-01-01T09:37:01.483Z,15.76
2023-01-01T09:39:30.794Z,15.75
2023-01-01T09:42:11.367Z,15.83
2023-01-01T09:44:57.497Z,15.91
2023-01-01T09:47:29.446Z,15.95
2023-01-01T09:50:02.888Z,15.96
2023-01-01T09:52:41.114Z,16.04
2023-01-01T09:55:19.657Z,16.03
2023-01-01T09:57:47.458Z,15.94
2023-01-01T10:00:17.784Z,15.96
2023-01-01T10:02:59.086Z,15.99
2023-01-01T10:05:34.806Z,15.96
2023-01-01T10:08:11.372Z,16.05
2023-01-01T10:10:42.463Z,16.06
2023-01-01T10:13:21.633Z,16.08
2023-01-01T10:15:57.843Z,16.03
2023-01-01T10:18:30.014Z,16.01
2023-01-01T10:21:06.104Z,16.05
2023-01-01T10:23:41.912Z,16.00
2023-01-01T10:26:16.248Z,16.08
2023-01-01T10:28:54.914Z,16.23
2023-01-01T10:31:30.571Z,16.31
2023-01-01T10:33:58.668Z,16.04
2023-01-01T10:36:27.492Z,16.08
2023-01-01T10:38:55.268Z,16.21
2023-01-01T10:41:24.468Z,16.14
2023-01-01T10:43:52.504Z,15.91
2023-01-01T10:46:29.596Z,15.86
2023-01-01T10:49:10.450Z,15.90
2023-01-01T10:51:42.991Z,15.88
2023-01-01T10:54:31.753Z,15.79
2023-01-01T10:57:02.055Z,15.85
2023-01-01T10:59:40.201Z,15.84
2023-01-01T11:02:20.953Z,15.72
2023-01-01T11:04:50.036Z,15.62
2023-01-01T11:07:25.648Z,15.58
2023-01-01T11:10:04.065Z,15.57
2023-01-01T11:15:38.799Z,15.60
2023-01-01T11:18:12.407Z,15.53
2023-01-01T11:20:41.122Z,15.52
2023-01-01T11:23:21.410Z,15.55
2023-01-01T11:26:03.741Z,15.50
2023-01-01T11:28:35.061Z,15.46
2023-01-01T11:31:14.917Z,15.47
2023-01-01T11:33:47.704Z,15.42
2023-01-01T11:36:22.803Z,15.42
2023-01-01T11:38:53.275Z,15.34
2023-01-01T11:41:21.050Z,15.33
2023-01-01T11:43:50.196Z,15.41
2023-01-01T11:46:25.634Z,15.30
2023-01-01T11:48:55.220Z,15.31
2023-01-01T11:51:35.134Z,15.27
2023-01-01T11:54:24.086Z,15.33
2023-01-01T11:56:55.338Z,15.40
2023-01-01T11:59:29.883Z,15.46
2023-01-01T12:02:03.176Z,15.44
2023-01-01T12:04:37.802Z,15.42
2023-01-01T12:07:08.089Z,15.34
2023-01-01T12:09:42.239Z,15.32
2023-01-01T12:12:17.986Z,15.30
2023-01-01T12:14:54.058Z,15.28
2023-01-01T12:17:27.657Z,15.25
2023-01-01T12:20:03.435Z,15.23
2023-01-01T12:22:31.891Z,15.16
2023-01-01T12:25:00.205Z,15.12
2023-01-01T12:28:01.404Z,15.18
2023-01-01T12:30:37.927Z,15.15
2023-01-01T12:33:28.898Z,15.19
2023-01-01T12:36:20.495Z,15.05
2023-01-01T12:39:25.587Z,15.03
2023-01-01T12:42:00.134Z,15.05
2023-01-01T12:44:41.413Z,15.12
2023-01-01T12:47:22.224Z,14.94
2023-01-01T12:50:07.789Z,14.91
2023-01-01T12:52:46.309Z,14.85
2023-01-01T12:55:53.126Z,14.88
2023-01-01T12:58:27.099Z,14.93
2023-01-01T13:01:00.448Z,14.86
2023-01-01T13:03:34.192Z,14.75
2023-01-01T13:06:03.505Z,14.80
2023-01-01T13:08:31.978Z,14.84
2023-01-01T13:11:02.575Z,14.75
2023-01-01T13:13:30.484Z,14.84
2023-01-01T13:15:59.055Z,14.60
2023-01-01T13:18:34.661Z,14.69
2023-01-01T13:21:06.380Z,14.64
2023-01-01T13:23:49.300Z,14.58
2023-01-01T13:26:37.903Z,14.45
2023-01-01T13:29:34.210Z,14.55
2023-01-01T13:32:05.247Z,14.61
2023-01-01T13:34:37.571Z,14.50
2023-01-01T13:37:33.040Z,14.47
2023-01-01T13:40:02.171Z,14.45
2023-01-01T13:42:40.941Z,14.45
2023-01-01T13:45:36.969Z,14.53
2023-01-01T13:48:20.266Z,14.50
2023-01-01T13:51:00.950Z,14.48
2023-01-01T13:53:57.763Z,14.49
2023-01-01T13:56:38.242Z,14.47
2023-01-01T13:59:31.978Z,14.49
2023-01-01T14:02:15.846Z,14.51
2023-01-01T14:04:47.839Z,14.44
2023-01-01T14:10:27.760Z,14.45
2023-01-01T14:13:16.076Z,14.39
2023-01-01T14:15:53.954Z,14.40
2023-01-01T14:18:26.761Z,14.38
2023-01-01T14:20:55.237Z,14.48
2023-01-01T14:23:32.978Z,14.44
2023-01-01T14:26:03.513Z,14.39
2023-01-01T14:28:33.517Z,14.37
2023-01-01T14:31:11.187Z,14.29
2023-01-01T14:33:39.899Z,14.21
2023-01-01T14:36:17.564Z,14.27
2023-01-01T14:38:49.082Z,14.21
2023-01-01T14:41:21.531Z,14.17
2023-01-01T14:43:52.213Z,14.18
2023-01-01T14:46:23.271Z,14.13
2023-01-01T14:48:54.409Z,14.09
2023-01-01T14:51:24.827Z,14.05
2023-01-01T14:53:56.654Z,13.97
2023-01-01T14:56:29.368Z,14.04
2023-01-01T14:59:06.401Z,14.06
2023-01-01T15:01:34.375Z,14.07
2023-01-01T15:04:03.752Z,14.04
2023-01-01T15:06:32.842Z,13.98
2023-01-01T15:09:02.129Z,13.89
2023-01-01T15:11:29.947Z,13.91
2023-01-01T15:14:01.288Z,13.85
2023-01-01T15:16:36.306Z,13.76
2023-01-01T15:19:19.532Z,13.80
2023-01-01T15:21:47.807Z,13.84
2023-01-01T15:24:22.339Z,13.83
2023-01-01T15:26:53.744Z,13.79
2023-01-01T15:29:28.491Z,13.79
2023-01-01T15:31:59.433Z,13.88
2023-01-01T15:34:30.464Z,13.80
2023-01-01T15:37:07.401Z,13.78
2023-01-01T15:39:46.773Z,13.77
2023-01-01T15:42:39.808Z,13.74
2023-01-01T15:45:21.522Z,13.82
2023-01-01T15:47:49.852Z,13.95
2023-01-01T15:50:23.317Z,13.98
2023-01-01T15:52:55.895Z,13.96
2023-01-01T15:55:29.057Z,14.01
2023-01-01T15:57:57.581Z,14.03
2023-01-01T16:00:28.367Z,13.99
2023-01-01T16:03:01.605Z,14.01
2023-01-01T16:05:29.816Z,13.91
2023-01-01T16:08:02.346Z,14.01
2023-01-01T16:10:34.296Z,14.00
2023-01-01T16:13:02.392Z,13.96
2023-01-01T16:15:30.208Z,13.95
2023-01-01T16:17:58.155Z,13.96
2023-01-01T16:20:26.345Z,14.05
2023-01-01T16:22:54.117Z,14.00
2023-01-01T16:25:26.143Z,13.97
2023-01-01T16:27:55.921Z,14.02
2023-01-01T16:30:27.101Z,13.94
2023-01-01T16:32:55.055Z,14.03
2023-01-01T16:35:22.879Z,14.08
2023-01-01T16:37:50.774Z,14.06
2023-01-01T16:40:18.547Z,13.99
2023-01-01T16:42:46.515Z,13.99
2023-01-01T16:45:19.595Z,14.09
2023-01-01T16:47:49.871Z,14.11
2023-01-01T16:50:17.739Z,14.12
2023-01-01T16:52:46.304Z,14.14
2023-01-01T16:55:14.862Z,14.16
2023-01-01T16:57:43.523Z,14.05
2023-01-01T17:00:12.678Z,14.00
2023-01-01T17:02:44.237Z,14.05
2023-01-01T17:05:13.091Z,13.96
2023-01-01T17:07:40.861Z,13.77
2023-01-01T17:10:09.370Z,13.87
2023-01-01T17:12:37.286Z,13.86
2023-01-01T17:15:05.857Z,13.80
2023-01-01T17:17:33.674Z,13.83
2023-01-01T17:20:02.991Z,13.84
2023-01-01T17:22:34.227Z,13.86
2023-01-01T17:25:02.666Z,13.79
2023-01-01T17:27:32.836Z,13.74
2023-01-01T17:30:00.788Z,13.73
2023-01-01T17:32:28.857Z,13.76
2023-01-01T17:34:56.811Z,13.81
2023-01-01T17:37:26.009Z,13.82
2023-01-01T17:39:54.034Z,13.88
2023-01-01T17:42:22.281Z,13.81
2023-01-01T17:44:50.460Z,13.85
2023-01-01T17:47:18.346Z,13.86
2023-01-01T17:49:46.370Z,13.89
2023-01-01T17:52:16.994Z,13.94
2023-01-01T17:54:46.524Z,13.96
2023-01-01T17:57:14.929Z,13.90
2023-01-01T17:59:42.744Z,13.96
2023-01-01T18:02:14.005Z,13.86
2023-01-01T18:04:42.120Z,13.79
2023-01-01T18:07:09.909Z,13.88
2023-01-01T18:09:38.449Z,13.90
2023-01-01T18:12:08.243Z,13.94
2023-01-01T18:14:36.448Z,13.90
2023-01-01T18:17:04.376Z,13.91
2023-01-01T18:19:32.481Z,14.00
2023-01-01T18:22:00.491Z,13.90
2023-01-01T18:24:28.575Z,13.94
2023-01-01T18:26:57.928Z,13.96
2023-01-01T18:29:27.044Z,13.98
2023-01-01T18:31:54.893Z,13.96
2023-01-01T18:34:23.002Z,13.93
2023-01-01T18:36:50.731Z,13.89
2023-01-01T18:39:23.086Z,13.98
2023-01-01T18:42:15.045Z,13.87
2023-01-01T18:44:44.271Z,13.87
2023-01-01T18:47:17.412Z,13.89
2023-01-01T18:49:53.316Z,13.91
2023-01-01T18:52:26.162Z,13.87
2023-01-01T18:55:13.162Z,13.88
2023-01-01T18:57:41.598Z,13.82
2023-01-01T19:00:19.944Z,13.86
2023-01-01T19:02:55.648Z,13.87
2023-01-01T19:05:27.361Z,13.82
2023-01-01T19:08:03.014Z,13.78
2023-01-01T19:10:36.450Z,13.79
2023-01-01T19:13:16.080Z,13.83
2023-01-01T19:15:48.178Z,13.87
2023-01-01T19:18:18.448Z,13.93
2023-01-01T19:20:46.759Z,13.91
2023-01-01T19:23:19.811Z,13.91
2023-01-01T19:25:48.807Z,13.90
2023-01-01T19:28:38.781Z,13.83
2023-01-01T19:31:10.629Z,13.84
2023-01-01T19:33:40.857Z,13.79
2023-01-01T19:36:13.250Z,13.80
2023-01-01T19:38:41.136Z,13.74
2023-01-01T19:41:09.439Z,13.75
2023-01-01T19:43:38.424Z,13.75
2023-01-01T19:46:07.672Z,13.74
2023-01-01T19:48:35.404Z,13.74
2023-01-01T19:51:03.227Z,13.73
2023-01-01T19:53:31.028Z,13.77
2023-01-01T19:55:59.048Z,13.87
2023-01-01T19:58:26.815Z,13.86
2023-01-01T20:00:54.675Z,13.87
2023-01-01T20:06:12.465Z,13.86
2023-01-01T20:08:40.192Z,13.87
2023-01-01T20:11:08.388Z,13.89
2023-01-01T20:13:36.407Z,13.88
2023-01-01T20:16:05.268Z,13.86
2023-01-01T20:18:34.482Z,13.79
2023-01-01T20:21:25.541Z,13.74
2023-01-01T20:23:54.323Z,13.71
2023-01-01T20:26:23.712Z,13.73
2023-01-01T20:29:09.533Z,13.74
2023-01-01T20:31:37.434Z,13.75
2023-01-01T20:34:06.657Z,13.76
2023-01-01T20:36:52.270Z,13.75
2023-01-01T20:39:21.402Z,13.73
2023-01-01T20:41:49.194Z,13.76
2023-01-01T20:44:17.074Z,13.79
2023-01-01T20:46:45.957Z,13.79
2023-01-01T20:49:17.142Z,13.78
2023-01-01T20:51:44.998Z,13.72
2023-01-01T20:54:13.097Z,13.72
2023-01-01T20:56:40.919Z,13.74
2023-01-01T20:59:33.548Z,13.71
2023-01-01T21:01:58.616Z,13.65
2023-01-01T21:04:27.814Z,13.67
2023-01-01T21:06:55.665Z,13.68
2023-01-01T21:09:23.570Z,13.67
2023-01-01T21:11:51.393Z,13.67
2023-01-01T21:14:20.877Z,13.71
2023-01-01T21:16:48.776Z,13.72
2023-01-01T21:19:20.097Z,13.63
2023-01-01T21:21:54.220Z,13.58
2023-01-01T21:24:23.823Z,13.50
2023-01-01T21:26:54.481Z,13.45
2023-01-01T21:29:25.179Z,13.60
2023-01-01T21:31:58.597Z,13.67
2023-01-01T21:34:39.720Z,13.66
2023-01-01T21:37:14.727Z,13.70
2023-01-01T21:39:43.273Z,13.69
2023-01-01T21:42:23.440Z,13.73
2023-01-01T21:44:56.638Z,13.76
2023-01-01T21:47:26.137Z,13.75
2023-01-01T21:49:56.911Z,13.75
2023-01-01T21:52:27.527Z,13.80
2023-01-01T21:54:57.802Z,13.78
2023-01-01T21:57:26.124Z,13.78
2023-01-01T21:59:55.266Z,13.71
2023-01-01T22:02:36.295Z,13.71
2023-01-01T22:05:29.489Z,13.74
2023-01-01T22:08:00.280Z,13.69
2023-01-01T22:10:33.221Z,13.69
2023-01-01T22:13:02.497Z,13.69
2023-01-01T22:15:40.196Z,13.67
2023-01-01T22:18:23.015Z,13.69
2023-01-01T22:20:51.804Z,13.59
2023-01-01T22:23:35.918Z,13.56
2023-01-01T22:26:05.938Z,13.56
2023-01-01T22:28:41.838Z,13.60
2023-01-01T22:31:11.840Z,13.59
2023-01-01T22:33:43.767Z,13.62
2023-01-01T22:36:15.666Z,13.58
2023-01-01T22:38:44.965Z,13.60
2023-01-01T22:41:14.550Z,13.59
2023-01-01T22:43:44.452Z,13.60
2023-01-01T22:46:17.035Z,13.64
2023-01-01T22:48:45.141Z,13.65
2023-01-01T22:51:18.372Z,13.62
2023-01-01T22:53:47.521Z,13.66
2023-01-01T22:56:15.420Z,13.61
2023-01-01T22:58:43.268Z,13.64
2023-01-01T23:01:11.087Z,13.65
2023-01-01T23:03:38.963Z,13.67
2023-01-01T23:06:07.739Z,13.62
2023-01-01T23:08:35.627Z,13.66
2023-01-01T23:11:04.902Z,13.65
2023-01-01T23:13:50.151Z,13.52
2023-01-01T23:16:17.963Z,13.49
2023-01-01T23:18:45.893Z,13.51
2023-01-01T23:21:22.729Z,13.49
2023-01-01T23:23:55.987Z,13.52
2023-01-01T23:26:25.957Z,13.47
2023-01-01T23:28:55.791Z,13.46
2023-01-01T23:31:27.051Z,13.51
2023-01-01T23:33:56.108Z,13.50
2023-01-01T23:36:24.196Z,13.54
2023-01-01T23:38:52.110Z,13.54
2023-01-01T23:41:19.913Z,13.52
2023-01-01T23:43:49.190Z,13.49
2023-01-01T23:46:18.008Z,13.51
2023-01-01T23:48:47.593Z,13.52
2023-01-01T23:51:17.489Z,13.49
2023-01-01T23:53:45.370Z,13.49
2023-01-01T23:56:13.526Z,13.43
2023-01-01T23:58:41.320Z,13.43
